WetterOnline ( https://www.wetteronline.de )

Wetter aktuell Schauren

Aktuelles Wetter: Deuselbach (483m)

6-stündlich | Neueste Meldungen
Ortszeit Temperatur Wetter
Di, 26.10. 20:00 9.2° C bewölkt
Di, 26.10. 14:00 11.4° C bewölkt
Di, 26.10. 8:00 8.8° C wolkig
Di, 26.10. 2:00 9.1° C bedeckt
Mo, 25.10. 20:00 10.9° C bewölkt
Mo, 25.10. 14:00 14.8° C leicht bewölkt
Mo, 25.10. 8:00 5.6° C bedeckt
Mo, 25.10. 2:00 6.3° C wolkenlos
Ortszeit Temperatur Wetter
Mi, 27.10. 0:00 9.2° C bedeckt
Di, 26.10. 23:50 9.2° C bedeckt
Di, 26.10. 23:40 9.2° C bedeckt
Di, 26.10. 23:30 9.1° C bewölkt
Di, 26.10. 23:20 9.1° C bewölkt
Di, 26.10. 23:10 9.0° C bedeckt
Di, 26.10. 23:00 9.1° C bewölkt
Di, 26.10. 22:30 9.0° C bedeckt
Di, 26.10. 22:00 8.6° C bewölkt
Di, 26.10. 21:30 8.8° C bewölkt
Di, 26.10. 21:00 8.4° C wolkig
Ortszeit Relative Feuchte Sichtweite
Di, 26.10. 20:00 82% 60 km
Di, 26.10. 14:00 74% >70 km
Di, 26.10. 8:00 95% 30 km
Di, 26.10. 2:00 92% 27 km
Mo, 25.10. 20:00 81% 40 km
Mo, 25.10. 14:00 56% >70 km
Mo, 25.10. 8:00 84% 60 km
Mo, 25.10. 2:00 82% 50 km
Ortszeit Relative Feuchte Sichtweite
Mi, 27.10. 0:00 92% 30 km
Di, 26.10. 23:50 92% -
Di, 26.10. 23:40 92% -
Di, 26.10. 23:30 92% 30 km
Di, 26.10. 23:20 92% -
Di, 26.10. 23:10 91% -
Di, 26.10. 23:00 90% 35 km
Di, 26.10. 22:30 89% 40 km
Di, 26.10. 22:00 90% 40 km
Di, 26.10. 21:30 88% 35 km
Di, 26.10. 21:00 87% 45 km
Ortszeit Niederschlagsmenge Niederschlagsart
Di, 26.10. 20:00 0.1 l/m2 in 12 Std. -
Di, 26.10. 14:00 0.1 l/m2 in 6 Std. Regen
Di, 26.10. 8:00 0.3 l/m2 in 12 Std. Regen
Di, 26.10. 2:00 0.3 l/m2 in 6 Std. Regen
Mo, 25.10. 20:00 0.1 l/m2 in 12 Std. Regen
Mo, 25.10. 14:00 0.0 l/m2 in 6 Std. -
Mo, 25.10. 8:00 0.0 l/m2 in 12 Std. -
Mo, 25.10. 2:00 0.0 l/m2 in 6 Std. -
Ortszeit Niederschlagsmenge Niederschlagsart
Mi, 27.10. 0:00 0.0 l/m2 in 1 Std. -
Di, 26.10. 23:50 keine Meldung -
Di, 26.10. 23:40 keine Meldung -
Di, 26.10. 23:30 0.0 l/m2 in 1 Std. -
Di, 26.10. 23:20 keine Meldung -
Di, 26.10. 23:10 keine Meldung -
Di, 26.10. 23:00 0.0 l/m2 in 1 Std. -
Di, 26.10. 22:30 0.0 l/m2 in 1 Std. -
Di, 26.10. 22:00 0.0 l/m2 in 1 Std. -
Di, 26.10. 21:30 0.0 l/m2 in 1 Std. -
Di, 26.10. 21:00 0.0 l/m2 in 1 Std. -
Ortszeit Stärke Spitze Richtung
km/h Bft. km/h Grad Sektor
Di, 26.10. 20:00 15 3 31 300° NW
Di, 26.10. 14:00 18 3 32 340° N
Di, 26.10. 8:00 11 2 29 330° NW
Di, 26.10. 2:00 20 4 31 340° N
Mo, 25.10. 20:00 4 1 32 280° W
Mo, 25.10. 14:00 14 3 32 280° W
Mo, 25.10. 8:00 6 1 11 200° S
Mo, 25.10. 2:00 0 0 22 - -
Ortszeit Stärke Spitze Richtung
km/h Bft. km/h Grad Sektor
Mi, 27.10. 0:00 14 3 25 310° NW
Di, 26.10. 23:50 14 3 - 310° NW
Di, 26.10. 23:40 17 3 - 310° NW
Di, 26.10. 23:30 13 3 22 310° NW
Di, 26.10. 23:20 13 3 - 310° NW
Di, 26.10. 23:10 13 3 - 310° NW
Di, 26.10. 23:00 17 3 24 310° NW
Di, 26.10. 22:30 14 3 22 310° NW
Di, 26.10. 22:00 15 3 22 310° NW
Di, 26.10. 21:30 15 3 20 300° NW
Di, 26.10. 21:00 13 3 22 310° NW
Ortszeit Untergrenze Bedeckung Gattung
total tief tief mittel hoch
Di, 26.10. 20:00 810 m 7/8 6/8 - - -
Di, 26.10. 14:00 660 m 7/8 7/8 - - -
Di, 26.10. 8:00 180 m 6/8 6/8 - - -
Di, 26.10. 2:00 330 m 8/8 8/8 - - -
Mo, 25.10. 20:00 1110 m 8/8 7/8 - - -
Mo, 25.10. 14:00 7800 m 4/8 0/8 - - -
Mo, 25.10. 8:00 4200 m 8/8 8/8 - - -
Mo, 25.10. 2:00 - 0/8 0/8 - - -
Ortszeit Bedeckungsgrad in Achtel und Wolkenuntergrenze
Mi, 27.10. 0:00 8(510m) 8(900m)
Di, 26.10. 23:50 8(510m) 8(900m)
Di, 26.10. 23:40 8(540m) 8(870m)
Di, 26.10. 23:30 7(540m) 7(930m)
Di, 26.10. 23:20 7(540m)
Di, 26.10. 23:10 7(570m) 8(690m)
Di, 26.10. 23:00 1(300m) 7(660m) 7(960m)
Di, 26.10. 22:30 8(780m)
Di, 26.10. 22:00 7(840m) 7(10500m)
Di, 26.10. 21:30 7(870m)
Di, 26.10. 21:00 5(9000m) 7(10500m) 7(10500m)
Ortszeit Luftdruck NN (hPa) Tendenz (hPa in 3 Std.)
Di, 26.10. 20:00 1026 + 1,4
Di, 26.10. 14:00 1023 + 0,2
Di, 26.10. 8:00 1022 + 0,9
Di, 26.10. 2:00 1021 + 0,2
Mo, 25.10. 20:00 1020 + 0,8
Mo, 25.10. 14:00 1019 - 0,8
Mo, 25.10. 8:00 1021 - 0,9
Mo, 25.10. 2:00 1023 - 0,1
Ortszeit Luftdruck NN (hPa) Tendenz (hPa in 3 Std.)
Mi, 27.10. 0:00 1026 + 0,4
Di, 26.10. 23:50 1026 keine Meldung
Di, 26.10. 23:40 1026 keine Meldung
Di, 26.10. 23:30 1026 + 0,4
Di, 26.10. 23:20 1026 keine Meldung
Di, 26.10. 23:10 1026 keine Meldung
Di, 26.10. 23:00 1026 + 0,4
Di, 26.10. 22:30 1026 + 0,5
Di, 26.10. 22:00 1026 + 0,6
Di, 26.10. 21:30 1026 + 0,8
Di, 26.10. 21:00 1026 + 1,2
Ortszeit Schneehöhe (cm)
Di, 26.10. 20:00 0
Di, 26.10. 14:00 0
Di, 26.10. 8:00 0
Di, 26.10. 2:00 0
Mo, 25.10. 20:00 0
Mo, 25.10. 14:00 0
Mo, 25.10. 8:00 0
Mo, 25.10. 2:00 0
Ortszeit Schneehöhe (cm)
Mi, 27.10. 0:00 0
Di, 26.10. 23:50 0
Di, 26.10. 23:40 0
Di, 26.10. 23:30 0
Di, 26.10. 23:20 0
Di, 26.10. 23:10 0
Di, 26.10. 23:00 0
Di, 26.10. 22:30 0
Di, 26.10. 22:00 0
Di, 26.10. 21:30 0
Di, 26.10. 21:00 0
Link zu dieser Seite / Seite empfehlen

Das Wetter in ...